Aérodrome :
LOGIN :

S'inscrire | Disclaimer

   EN    FR    IT 

 










Légende :    VFR   VFR Marginal   IFR   IFR Intensif   IFR Très Intensif
Visi : 
Plafond : 
>= 8 km
>= 3000ft
5 à 8 km
1000 à 3000 ft
1500m à 5 km
500 à 1000 ft
800 à 1500m
200 à 500 ft
< 800m
< 200 ft
Symboles :   Orages  Brouillard  Fortes neiges  Fortes précipitations  Vent > 20 kt
SIGMETs :   Divers  Orages  Givrage  Turbulence  Onde Orograph.  Cendres Volcan.







- Altitude de l'aérodrome : 433 ft
- Voir les cartes d'approche


LFOC - Chateaudun

DERNIER METAR :
  • 231000Z AUTO 16003KT 130V200 9999 OVC011 07/05 Q1009 TEMPO 4000 SHRA BECMG BKN006 BKN012TCU

METARs EXPIRÉS :
  • 230930Z AUTO VRB02KT 9999 BKN010 07/05 Q1008 TEMPO 4000 SHRA BECMG BKN006 BKN012TCU
  • 230900Z AUTO 03005KT 9999 SCT008 SCT025 BKN030 07/05 Q1007 BECMG 16010KT BKN006 BKN012TCU
  • 230830Z AUTO 04003KT 350V060 9999 BKN007 BKN024 BKN037 06/05 Q1008
  • 230800Z AUTO 03006KT 9999 FEW005 SCT014 BKN023 06/05 Q1007
  • 230730Z AUTO 36004KT 8000 -RA BKN008 OVC012 06/05 Q1007

TAF TAF LFOC
Valide du 23 à 09h jusqu'au 24 à 09h UTC


230800Z 2309/2409 05005KT 9999 SCT008 BKN020
BECMG 2309/2311 16010KT BKN006 BKN012TCU
TEMPO 2311/2315 4000 SHRA
BECMG 2315/2316 SCT010 BKN040TCU
PROB40
TEMPO 2316/2319 4000 -SHRA
BECMG 2319/2321 08005KT BKN003
TEMPO 2321/2409 3000 BR
Pas de NOTAMs connus pour ce terrain.



MET'MAP, la Météo Aéronautique d'un coup d'oeil ! - Copyright ORBIFLY Décembre 2007 - Disclaimer

ORBIFLY MET'MAP TEAM :

Programmation & Développement : Alexandra Zaïnal
Conception & Développement : Baudouin d'Aumeries
Co-Programmation & Développement : Marc-Olivier Méhu
Soutien technique & logistique : Manuel Goepfert

Contact : metmap@orbifly.com




SOURCES & CREDITS :

   NOAA